sensor_id;sensor_type;location;lat;lon;timestamp;P1;durP1;ratioP1;P2;durP2;ratioP2
58581;SDS011;44361;51.476;5.700;2023-04-24T00:00:12;16.35;;;8.80;;
58581;SDS011;44361;51.476;5.700;2023-04-24T00:02:39;16.38;;;8.75;;
58581;SDS011;44361;51.476;5.700;2023-04-24T00:05:05;14.13;;;8.77;;
58581;SDS011;44361;51.476;5.700;2023-04-24T00:07:32;18.00;;;9.35;;
58581;SDS011;44361;51.476;5.700;2023-04-24T00:09:58;19.90;;;9.85;;
58581;SDS011;44361;51.476;5.700;2023-04-24T00:12:24;17.42;;;9.80;;
58581;SDS011;44361;51.476;5.700;2023-04-24T00:14:50;14.77;;;8.90;;
58581;SDS011;44361;51.476;5.700;2023-04-24T00:17:15;18.35;;;9.95;;
58581;SDS011;44361;51.476;5.700;2023-04-24T00:19:44;14.60;;;9.98;;
58581;SDS011;44361;51.476;5.700;2023-04-24T00:22:10;17.05;;;9.50;;
58581;SDS011;44361;51.476;5.700;2023-04-24T00:24:38;15.13;;;9.30;;
58581;SDS011;44361;51.476;5.700;2023-04-24T00:27:04;19.25;;;9.95;;
58581;SDS011;44361;51.476;5.700;2023-04-24T00:29:29;16.55;;;9.48;;
58581;SDS011;44361;51.476;5.700;2023-04-24T00:31:55;23.00;;;10.13;;
58581;SDS011;44361;51.476;5.700;2023-04-24T00:34:20;18.17;;;10.10;;
58581;SDS011;44361;51.476;5.700;2023-04-24T00:36:46;13.68;;;8.77;;
58581;SDS011;44361;51.476;5.700;2023-04-24T00:39:13;20.52;;;9.80;;
58581;SDS011;44361;51.476;5.700;2023-04-24T00:41:39;16.20;;;9.88;;
58581;SDS011;44361;51.476;5.700;2023-04-24T00:44:05;19.10;;;9.32;;
58581;SDS011;44361;51.476;5.700;2023-04-24T00:46:30;14.98;;;8.50;;
58581;SDS011;44361;51.476;5.700;2023-04-24T00:48:56;16.60;;;9.32;;
58581;SDS011;44361;51.476;5.700;2023-04-24T00:51:24;17.40;;;9.77;;
58581;SDS011;44361;51.476;5.700;2023-04-24T00:53:49;14.80;;;9.52;;
58581;SDS011;44361;51.476;5.700;2023-04-24T00:56:16;16.98;;;9.55;;
58581;SDS011;44361;51.476;5.700;2023-04-24T00:58:43;19.38;;;9.95;;
58581;SDS011;44361;51.476;5.700;2023-04-24T01:01:09;19.08;;;9.85;;
58581;SDS011;44361;51.476;5.700;2023-04-24T01:03:36;21.58;;;10.23;;
58581;SDS011;44361;51.476;5.700;2023-04-24T01:06:03;21.05;;;11.25;;
58581;SDS011;44361;51.476;5.700;2023-04-24T01:08:30;19.75;;;10.75;;
58581;SDS011;44361;51.476;5.700;2023-04-24T01:10:56;18.83;;;10.23;;
58581;SDS011;44361;51.476;5.700;2023-04-24T01:13:24;18.38;;;10.85;;
58581;SDS011;44361;51.476;5.700;2023-04-24T01:15:49;20.75;;;10.73;;
58581;SDS011;44361;51.476;5.700;2023-04-24T01:18:15;20.10;;;11.20;;
58581;SDS011;44361;51.476;5.700;2023-04-24T01:20:41;19.63;;;11.05;;
58581;SDS011;44361;51.476;5.700;2023-04-24T01:23:09;25.75;;;11.82;;
58581;SDS011;44361;51.476;5.700;2023-04-24T01:25:35;23.80;;;12.05;;
58581;SDS011;44361;51.476;5.700;2023-04-24T01:28:02;22.20;;;12.10;;
58581;SDS011;44361;51.476;5.700;2023-04-24T01:30:28;21.42;;;12.48;;
58581;SDS011;44361;51.476;5.700;2023-04-24T01:32:53;23.67;;;13.27;;
58581;SDS011;44361;51.476;5.700;2023-04-24T01:35:20;25.15;;;12.35;;
58581;SDS011;44361;51.476;5.700;2023-04-24T01:37:46;22.65;;;12.88;;
58581;SDS011;44361;51.476;5.700;2023-04-24T01:40:12;22.02;;;11.98;;
58581;SDS011;44361;51.476;5.700;2023-04-24T01:42:37;25.15;;;12.55;;
58581;SDS011;44361;51.476;5.700;2023-04-24T01:45:03;24.60;;;13.13;;
58581;SDS011;44361;51.476;5.700;2023-04-24T01:47:30;22.98;;;13.15;;
58581;SDS011;44361;51.476;5.700;2023-04-24T01:49:57;27.30;;;12.70;;
58581;SDS011;44361;51.476;5.700;2023-04-24T01:52:23;26.63;;;13.15;;
58581;SDS011;44361;51.476;5.700;2023-04-24T01:54:48;21.42;;;12.82;;
58581;SDS011;44361;51.476;5.700;2023-04-24T01:57:14;25.65;;;13.88;;
58581;SDS011;44361;51.476;5.700;2023-04-24T01:59:41;29.15;;;14.27;;
58581;SDS011;44361;51.476;5.700;2023-04-24T02:02:06;22.40;;;12.55;;
58581;SDS011;44361;51.476;5.700;2023-04-24T02:04:32;27.05;;;13.57;;
58581;SDS011;44361;51.476;5.700;2023-04-24T02:06:57;28.92;;;13.93;;
58581;SDS011;44361;51.476;5.700;2023-04-24T02:09:23;28.98;;;15.15;;
58581;SDS011;44361;51.476;5.700;2023-04-24T02:11:48;30.08;;;15.60;;
58581;SDS011;44361;51.476;5.700;2023-04-24T02:14:14;29.67;;;16.23;;
58581;SDS011;44361;51.476;5.700;2023-04-24T02:16:40;26.25;;;14.45;;
58581;SDS011;44361;51.476;5.700;2023-04-24T02:19:05;31.58;;;15.40;;
58581;SDS011;44361;51.476;5.700;2023-04-24T02:21:31;26.45;;;13.88;;
58581;SDS011;44361;51.476;5.700;2023-04-24T02:23:57;31.35;;;14.98;;
58581;SDS011;44361;51.476;5.700;2023-04-24T02:26:23;28.23;;;14.15;;
58581;SDS011;44361;51.476;5.700;2023-04-24T02:28:48;25.02;;;14.45;;
58581;SDS011;44361;51.476;5.700;2023-04-24T02:31:14;31.67;;;14.10;;
58581;SDS011;44361;51.476;5.700;2023-04-24T02:33:41;27.52;;;14.63;;
58581;SDS011;44361;51.476;5.700;2023-04-24T02:36:07;29.70;;;14.65;;
58581;SDS011;44361;51.476;5.700;2023-04-24T02:38:32;31.67;;;15.35;;
58581;SDS011;44361;51.476;5.700;2023-04-24T02:40:58;26.20;;;15.30;;
58581;SDS011;44361;51.476;5.700;2023-04-24T02:43:23;28.75;;;14.27;;
58581;SDS011;44361;51.476;5.700;2023-04-24T02:45:49;28.83;;;14.82;;
58581;SDS011;44361;51.476;5.700;2023-04-24T02:48:15;26.15;;;13.32;;
58581;SDS011;44361;51.476;5.700;2023-04-24T02:50:41;31.48;;;15.05;;
58581;SDS011;44361;51.476;5.700;2023-04-24T02:53:07;34.13;;;14.13;;
58581;SDS011;44361;51.476;5.700;2023-04-24T02:55:32;27.27;;;13.55;;
58581;SDS011;44361;51.476;5.700;2023-04-24T02:57:58;27.80;;;13.93;;
58581;SDS011;44361;51.476;5.700;2023-04-24T03:00:23;24.00;;;12.90;;
58581;SDS011;44361;51.476;5.700;2023-04-24T03:02:49;23.98;;;13.30;;
58581;SDS011;44361;51.476;5.700;2023-04-24T03:05:15;23.40;;;13.38;;
58581;SDS011;44361;51.476;5.700;2023-04-24T03:07:41;22.33;;;13.15;;
58581;SDS011;44361;51.476;5.700;2023-04-24T03:10:06;23.80;;;12.75;;
58581;SDS011;44361;51.476;5.700;2023-04-24T03:12:32;22.50;;;12.00;;
58581;SDS011;44361;51.476;5.700;2023-04-24T03:14:58;21.70;;;12.45;;
58581;SDS011;44361;51.476;5.700;2023-04-24T03:17:24;20.45;;;11.70;;
58581;SDS011;44361;51.476;5.700;2023-04-24T03:19:50;20.42;;;12.77;;
58581;SDS011;44361;51.476;5.700;2023-04-24T03:22:15;18.25;;;11.50;;
58581;SDS011;44361;51.476;5.700;2023-04-24T03:24:41;22.27;;;12.32;;
58581;SDS011;44361;51.476;5.700;2023-04-24T03:27:06;21.20;;;11.00;;
58581;SDS011;44361;51.476;5.700;2023-04-24T03:29:32;22.75;;;10.88;;
58581;SDS011;44361;51.476;5.700;2023-04-24T03:31:58;22.02;;;11.50;;
58581;SDS011;44361;51.476;5.700;2023-04-24T03:34:24;20.08;;;10.77;;
58581;SDS011;44361;51.476;5.700;2023-04-24T03:36:49;17.75;;;10.55;;
58581;SDS011;44361;51.476;5.700;2023-04-24T03:39:15;17.52;;;10.07;;
58581;SDS011;44361;51.476;5.700;2023-04-24T03:41:41;19.60;;;9.82;;
58581;SDS011;44361;51.476;5.700;2023-04-24T03:44:06;17.55;;;10.55;;
58581;SDS011;44361;51.476;5.700;2023-04-24T03:46:32;18.77;;;10.43;;
58581;SDS011;44361;51.476;5.700;2023-04-24T03:48:57;19.20;;;10.75;;
58581;SDS011;44361;51.476;5.700;2023-04-24T03:51:23;23.52;;;10.57;;
58581;SDS011;44361;51.476;5.700;2023-04-24T03:53:48;15.55;;;10.25;;
58581;SDS011;44361;51.476;5.700;2023-04-24T03:56:14;15.95;;;9.77;;
58581;SDS011;44361;51.476;5.700;2023-04-24T03:58:40;20.55;;;11.43;;
58581;SDS011;44361;51.476;5.700;2023-04-24T04:01:06;17.88;;;9.80;;
58581;SDS011;44361;51.476;5.700;2023-04-24T04:03:31;14.48;;;9.73;;
58581;SDS011;44361;51.476;5.700;2023-04-24T04:05:57;21.98;;;10.80;;
58581;SDS011;44361;51.476;5.700;2023-04-24T04:08:22;16.95;;;9.20;;
58581;SDS011;44361;51.476;5.700;2023-04-24T04:10:48;17.85;;;9.57;;
58581;SDS011;44361;51.476;5.700;2023-04-24T04:13:13;15.02;;;9.80;;
58581;SDS011;44361;51.476;5.700;2023-04-24T04:15:39;15.45;;;9.30;;
58581;SDS011;44361;51.476;5.700;2023-04-24T04:18:05;20.52;;;9.80;;
58581;SDS011;44361;51.476;5.700;2023-04-24T04:20:31;15.48;;;8.80;;
58581;SDS011;44361;51.476;5.700;2023-04-24T04:22:56;18.95;;;9.00;;
58581;SDS011;44361;51.476;5.700;2023-04-24T04:25:22;16.05;;;8.88;;
58581;SDS011;44361;51.476;5.700;2023-04-24T04:27:48;15.05;;;9.10;;
58581;SDS011;44361;51.476;5.700;2023-04-24T04:30:14;19.30;;;8.88;;
58581;SDS011;44361;51.476;5.700;2023-04-24T04:32:39;19.27;;;9.55;;
58581;SDS011;44361;51.476;5.700;2023-04-24T04:35:05;12.38;;;8.05;;
58581;SDS011;44361;51.476;5.700;2023-04-24T04:37:34;15.82;;;8.88;;
58581;SDS011;44361;51.476;5.700;2023-04-24T04:40:00;15.20;;;8.30;;
58581;SDS011;44361;51.476;5.700;2023-04-24T04:42:26;18.48;;;8.98;;
58581;SDS011;44361;51.476;5.700;2023-04-24T04:44:52;14.63;;;8.68;;
58581;SDS011;44361;51.476;5.700;2023-04-24T04:47:18;14.75;;;8.98;;
58581;SDS011;44361;51.476;5.700;2023-04-24T04:49:49;14.50;;;8.50;;
58581;SDS011;44361;51.476;5.700;2023-04-24T04:52:16;15.50;;;8.95;;
58581;SDS011;44361;51.476;5.700;2023-04-24T04:54:42;19.75;;;9.20;;
58581;SDS011;44361;51.476;5.700;2023-04-24T04:57:08;16.85;;;9.73;;
58581;SDS011;44361;51.476;5.700;2023-04-24T04:59:34;15.57;;;8.73;;
58581;SDS011;44361;51.476;5.700;2023-04-24T05:01:59;19.40;;;9.68;;
58581;SDS011;44361;51.476;5.700;2023-04-24T05:04:25;15.98;;;9.10;;
58581;SDS011;44361;51.476;5.700;2023-04-24T05:06:51;13.10;;;8.30;;
58581;SDS011;44361;51.476;5.700;2023-04-24T05:09:17;17.95;;;8.90;;
58581;SDS011;44361;51.476;5.700;2023-04-24T05:11:43;16.45;;;9.05;;
58581;SDS011;44361;51.476;5.700;2023-04-24T05:14:08;19.27;;;9.95;;
58581;SDS011;44361;51.476;5.700;2023-04-24T05:16:34;30.48;;;9.50;;
58581;SDS011;44361;51.476;5.700;2023-04-24T05:18:59;15.13;;;8.55;;
58581;SDS011;44361;51.476;5.700;2023-04-24T05:21:25;15.88;;;7.90;;
58581;SDS011;44361;51.476;5.700;2023-04-24T05:23:51;15.63;;;7.80;;
58581;SDS011;44361;51.476;5.700;2023-04-24T05:26:17;12.13;;;7.97;;
58581;SDS011;44361;51.476;5.700;2023-04-24T05:28:42;17.08;;;7.93;;
58581;SDS011;44361;51.476;5.700;2023-04-24T05:31:08;13.55;;;7.72;;
58581;SDS011;44361;51.476;5.700;2023-04-24T05:33:33;11.77;;;7.45;;
58581;SDS011;44361;51.476;5.700;2023-04-24T05:35:59;12.68;;;7.25;;
58581;SDS011;44361;51.476;5.700;2023-04-24T05:38:25;12.07;;;7.47;;
58581;SDS011;44361;51.476;5.700;2023-04-24T05:40:50;10.70;;;5.65;;
58581;SDS011;44361;51.476;5.700;2023-04-24T05:43:16;9.75;;;5.82;;
58581;SDS011;44361;51.476;5.700;2023-04-24T05:45:41;7.45;;;5.15;;
58581;SDS011;44361;51.476;5.700;2023-04-24T05:48:07;6.28;;;3.90;;
58581;SDS011;44361;51.476;5.700;2023-04-24T05:50:32;7.53;;;4.00;;
58581;SDS011;44361;51.476;5.700;2023-04-24T05:52:58;4.72;;;3.20;;
58581;SDS011;44361;51.476;5.700;2023-04-24T05:55:24;5.45;;;2.97;;
58581;SDS011;44361;51.476;5.700;2023-04-24T05:57:50;6.30;;;3.10;;
58581;SDS011;44361;51.476;5.700;2023-04-24T06:00:16;6.55;;;2.70;;
58581;SDS011;44361;51.476;5.700;2023-04-24T06:02:43;4.63;;;2.42;;
58581;SDS011;44361;51.476;5.700;2023-04-24T06:05:09;5.88;;;2.67;;
58581;SDS011;44361;51.476;5.700;2023-04-24T06:07:34;3.25;;;2.10;;
58581;SDS011;44361;51.476;5.700;2023-04-24T06:10:00;2.97;;;1.90;;
58581;SDS011;44361;51.476;5.700;2023-04-24T06:12:26;2.85;;;1.80;;
58581;SDS011;44361;51.476;5.700;2023-04-24T06:14:52;3.33;;;1.60;;
58581;SDS011;44361;51.476;5.700;2023-04-24T06:17:17;3.72;;;1.30;;
58581;SDS011;44361;51.476;5.700;2023-04-24T06:19:43;2.35;;;1.13;;
58581;SDS011;44361;51.476;5.700;2023-04-24T06:22:09;2.80;;;1.42;;
58581;SDS011;44361;51.476;5.700;2023-04-24T06:24:34;1.88;;;1.17;;
58581;SDS011;44361;51.476;5.700;2023-04-24T06:27:00;1.60;;;1.08;;
58581;SDS011;44361;51.476;5.700;2023-04-24T06:29:26;2.35;;;1.48;;
58581;SDS011;44361;51.476;5.700;2023-04-24T06:31:52;2.70;;;1.20;;
58581;SDS011;44361;51.476;5.700;2023-04-24T06:34:18;2.90;;;1.45;;
58581;SDS011;44361;51.476;5.700;2023-04-24T06:36:43;3.33;;;1.40;;
58581;SDS011;44361;51.476;5.700;2023-04-24T06:39:09;3.38;;;1.40;;
58581;SDS011;44361;51.476;5.700;2023-04-24T06:41:34;2.17;;;1.48;;
58581;SDS011;44361;51.476;5.700;2023-04-24T06:44:00;2.80;;;1.30;;
58581;SDS011;44361;51.476;5.700;2023-04-24T06:46:26;2.65;;;1.77;;
58581;SDS011;44361;51.476;5.700;2023-04-24T06:48:52;2.53;;;1.75;;
58581;SDS011;44361;51.476;5.700;2023-04-24T06:51:25;1.98;;;1.15;;
58581;SDS011;44361;51.476;5.700;2023-04-24T06:53:51;4.07;;;1.63;;
58581;SDS011;44361;51.476;5.700;2023-04-24T06:56:18;2.22;;;1.33;;
58581;SDS011;44361;51.476;5.700;2023-04-24T06:58:44;1.90;;;1.27;;
58581;SDS011;44361;51.476;5.700;2023-04-24T07:01:10;3.03;;;1.17;;
58581;SDS011;44361;51.476;5.700;2023-04-24T07:03:36;3.33;;;1.60;;
58581;SDS011;44361;51.476;5.700;2023-04-24T07:06:01;1.92;;;1.63;;
58581;SDS011;44361;51.476;5.700;2023-04-24T07:08:28;4.25;;;2.45;;
58581;SDS011;44361;51.476;5.700;2023-04-24T07:10:55;4.30;;;2.45;;
58581;SDS011;44361;51.476;5.700;2023-04-24T07:13:21;5.05;;;2.63;;
58581;SDS011;44361;51.476;5.700;2023-04-24T07:15:47;9.45;;;5.50;;
58581;SDS011;44361;51.476;5.700;2023-04-24T07:18:15;12.13;;;6.25;;
58581;SDS011;44361;51.476;5.700;2023-04-24T07:20:41;10.95;;;6.70;;
58581;SDS011;44361;51.476;5.700;2023-04-24T07:23:07;12.35;;;7.53;;
58581;SDS011;44361;51.476;5.700;2023-04-24T07:25:32;14.45;;;7.90;;
58581;SDS011;44361;51.476;5.700;2023-04-24T07:27:58;17.42;;;7.85;;
58581;SDS011;44361;51.476;5.700;2023-04-24T07:30:23;12.00;;;7.25;;
58581;SDS011;44361;51.476;5.700;2023-04-24T07:32:49;13.90;;;8.10;;
58581;SDS011;44361;51.476;5.700;2023-04-24T07:35:15;17.35;;;8.63;;
58581;SDS011;44361;51.476;5.700;2023-04-24T07:37:40;20.48;;;9.35;;
58581;SDS011;44361;51.476;5.700;2023-04-24T07:40:10;17.38;;;9.23;;
58581;SDS011;44361;51.476;5.700;2023-04-24T07:42:37;15.38;;;8.18;;
58581;SDS011;44361;51.476;5.700;2023-04-24T07:45:03;16.35;;;8.52;;
58581;SDS011;44361;51.476;5.700;2023-04-24T07:47:29;18.27;;;8.98;;
58581;SDS011;44361;51.476;5.700;2023-04-24T07:49:55;18.92;;;8.95;;
58581;SDS011;44361;51.476;5.700;2023-04-24T07:52:21;16.15;;;7.85;;
58581;SDS011;44361;51.476;5.700;2023-04-24T07:54:46;16.20;;;8.02;;
58581;SDS011;44361;51.476;5.700;2023-04-24T07:57:12;16.25;;;8.63;;
58581;SDS011;44361;51.476;5.700;2023-04-24T07:59:38;14.68;;;8.38;;
58581;SDS011;44361;51.476;5.700;2023-04-24T08:02:04;14.05;;;7.45;;
58581;SDS011;44361;51.476;5.700;2023-04-24T08:04:31;16.75;;;9.15;;
58581;SDS011;44361;51.476;5.700;2023-04-24T08:06:56;13.35;;;8.57;;
58581;SDS011;44361;51.476;5.700;2023-04-24T08:09:22;21.13;;;7.40;;
58581;SDS011;44361;51.476;5.700;2023-04-24T08:11:47;14.77;;;6.30;;
58581;SDS011;44361;51.476;5.700;2023-04-24T08:14:13;15.07;;;6.03;;
58581;SDS011;44361;51.476;5.700;2023-04-24T08:16:39;14.98;;;6.72;;
58581;SDS011;44361;51.476;5.700;2023-04-24T08:19:05;16.77;;;6.90;;
58581;SDS011;44361;51.476;5.700;2023-04-24T08:21:31;19.45;;;6.78;;
58581;SDS011;44361;51.476;5.700;2023-04-24T08:23:57;19.08;;;6.15;;
58581;SDS011;44361;51.476;5.700;2023-04-24T08:26:22;14.95;;;6.32;;
58581;SDS011;44361;51.476;5.700;2023-04-24T08:28:48;21.58;;;6.55;;
58581;SDS011;44361;51.476;5.700;2023-04-24T08:31:13;15.23;;;6.93;;
58581;SDS011;44361;51.476;5.700;2023-04-24T08:33:39;21.05;;;6.82;;
58581;SDS011;44361;51.476;5.700;2023-04-24T08:36:05;15.98;;;6.22;;
58581;SDS011;44361;51.476;5.700;2023-04-24T08:38:32;16.70;;;6.70;;
58581;SDS011;44361;51.476;5.700;2023-04-24T08:40:58;15.55;;;5.38;;
58581;SDS011;44361;51.476;5.700;2023-04-24T08:43:25;19.00;;;6.07;;
58581;SDS011;44361;51.476;5.700;2023-04-24T08:45:52;15.77;;;6.63;;
58581;SDS011;44361;51.476;5.700;2023-04-24T08:48:20;22.48;;;6.47;;
58581;SDS011;44361;51.476;5.700;2023-04-24T08:50:47;19.95;;;6.70;;
58581;SDS011;44361;51.476;5.700;2023-04-24T08:53:15;14.27;;;6.53;;
58581;SDS011;44361;51.476;5.700;2023-04-24T08:55:41;15.93;;;6.55;;
58581;SDS011;44361;51.476;5.700;2023-04-24T08:58:08;14.82;;;6.30;;
58581;SDS011;44361;51.476;5.700;2023-04-24T09:00:34;15.00;;;6.60;;
58581;SDS011;44361;51.476;5.700;2023-04-24T09:03:00;20.20;;;6.15;;
58581;SDS011;44361;51.476;5.700;2023-04-24T09:05:26;14.98;;;5.97;;
58581;SDS011;44361;51.476;5.700;2023-04-24T09:07:53;18.00;;;6.70;;
58581;SDS011;44361;51.476;5.700;2023-04-24T09:10:24;18.92;;;6.45;;
58581;SDS011;44361;51.476;5.700;2023-04-24T09:12:50;15.13;;;5.38;;
58581;SDS011;44361;51.476;5.700;2023-04-24T09:15:17;20.73;;;5.32;;
58581;SDS011;44361;51.476;5.700;2023-04-24T09:17:45;18.38;;;5.45;;
58581;SDS011;44361;51.476;5.700;2023-04-24T09:20:11;10.40;;;4.82;;
58581;SDS011;44361;51.476;5.700;2023-04-24T09:22:37;13.93;;;4.60;;
58581;SDS011;44361;51.476;5.700;2023-04-24T09:25:03;13.50;;;4.20;;
58581;SDS011;44361;51.476;5.700;2023-04-24T09:27:31;12.23;;;3.40;;
58581;SDS011;44361;51.476;5.700;2023-04-24T09:29:57;14.40;;;4.13;;
58581;SDS011;44361;51.476;5.700;2023-04-24T09:32:23;6.60;;;2.92;;
58581;SDS011;44361;51.476;5.700;2023-04-24T09:37:36;12.50;;;4.30;;
58581;SDS011;44361;51.476;5.700;2023-04-24T09:40:17;13.40;;;3.30;;
58581;SDS011;44361;51.476;5.700;2023-04-24T09:42:45;8.30;;;3.30;;
58581;SDS011;44361;51.476;5.700;2023-04-24T09:45:16;16.02;;;3.75;;
58581;SDS011;44361;51.476;5.700;2023-04-24T09:47:42;11.20;;;3.58;;
58581;SDS011;44361;51.476;5.700;2023-04-24T09:50:15;6.60;;;2.80;;
58581;SDS011;44361;51.476;5.700;2023-04-24T09:52:42;14.52;;;3.40;;
58581;SDS011;44361;51.476;5.700;2023-04-24T09:55:27;10.98;;;3.22;;
58581;SDS011;44361;51.476;5.700;2023-04-24T09:57:56;10.10;;;3.00;;
58581;SDS011;44361;51.476;5.700;2023-04-24T10:00:25;6.85;;;2.78;;
58581;SDS011;44361;51.476;5.700;2023-04-24T10:05:37;8.88;;;2.75;;
58581;SDS011;44361;51.476;5.700;2023-04-24T10:08:10;11.35;;;3.05;;
58581;SDS011;44361;51.476;5.700;2023-04-24T10:10:44;6.07;;;2.22;;
58581;SDS011;44361;51.476;5.700;2023-04-24T10:13:11;12.65;;;2.15;;
58581;SDS011;44361;51.476;5.700;2023-04-24T10:15:38;4.75;;;1.92;;
58581;SDS011;44361;51.476;5.700;2023-04-24T10:18:05;6.80;;;2.17;;
58581;SDS011;44361;51.476;5.700;2023-04-24T10:20:32;7.07;;;1.65;;
58581;SDS011;44361;51.476;5.700;2023-04-24T10:22:58;6.45;;;1.63;;
58581;SDS011;44361;51.476;5.700;2023-04-24T10:25:28;15.52;;;2.03;;
58581;SDS011;44361;51.476;5.700;2023-04-24T10:27:55;8.52;;;1.52;;
58581;SDS011;44361;51.476;5.700;2023-04-24T10:30:28;7.88;;;2.60;;
58581;SDS011;44361;51.476;5.700;2023-04-24T10:32:55;6.55;;;1.73;;
58581;SDS011;44361;51.476;5.700;2023-04-24T10:35:21;6.95;;;1.48;;
58581;SDS011;44361;51.476;5.700;2023-04-24T10:38:02;6.45;;;1.50;;
58581;SDS011;44361;51.476;5.700;2023-04-24T10:40:32;7.18;;;1.50;;
58581;SDS011;44361;51.476;5.700;2023-04-24T10:42:59;3.08;;;1.33;;
58581;SDS011;44361;51.476;5.700;2023-04-24T10:45:27;5.00;;;1.33;;
58581;SDS011;44361;51.476;5.700;2023-04-24T10:47:54;7.82;;;1.10;;
58581;SDS011;44361;51.476;5.700;2023-04-24T10:50:30;5.63;;;1.33;;
58581;SDS011;44361;51.476;5.700;2023-04-24T10:53:20;8.57;;;1.65;;
58581;SDS011;44361;51.476;5.700;2023-04-24T10:55:51;3.72;;;0.95;;
58581;SDS011;44361;51.476;5.700;2023-04-24T10:58:38;5.78;;;1.23;;
58581;SDS011;44361;51.476;5.700;2023-04-24T11:01:30;1.67;;;0.60;;
58581;SDS011;44361;51.476;5.700;2023-04-24T11:03:58;2.00;;;0.68;;
58581;SDS011;44361;51.476;5.700;2023-04-24T11:06:34;2.72;;;0.73;;
58581;SDS011;44361;51.476;5.700;2023-04-24T11:09:05;1.63;;;0.80;;
58581;SDS011;44361;51.476;5.700;2023-04-24T11:11:37;2.20;;;0.50;;
58581;SDS011;44361;51.476;5.700;2023-04-24T11:14:06;1.17;;;0.40;;
58581;SDS011;44361;51.476;5.700;2023-04-24T11:16:42;2.97;;;0.50;;
58581;SDS011;44361;51.476;5.700;2023-04-24T11:19:20;2.25;;;0.95;;
58581;SDS011;44361;51.476;5.700;2023-04-24T11:21:50;1.83;;;0.57;;
58581;SDS011;44361;51.476;5.700;2023-04-24T11:24:30;1.10;;;0.38;;
58581;SDS011;44361;51.476;5.700;2023-04-24T11:29:48;2.95;;;0.60;;
58581;SDS011;44361;51.476;5.700;2023-04-24T11:32:30;3.33;;;0.70;;
58581;SDS011;44361;51.476;5.700;2023-04-24T11:35:04;3.33;;;0.50;;
58581;SDS011;44361;51.476;5.700;2023-04-24T11:37:53;1.52;;;0.50;;
58581;SDS011;44361;51.476;5.700;2023-04-24T11:40:19;2.22;;;0.63;;
58581;SDS011;44361;51.476;5.700;2023-04-24T11:42:48;2.90;;;1.10;;
58581;SDS011;44361;51.476;5.700;2023-04-24T11:45:15;3.90;;;0.70;;
58581;SDS011;44361;51.476;5.700;2023-04-24T11:47:43;3.17;;;1.10;;
58581;SDS011;44361;51.476;5.700;2023-04-24T11:50:10;5.80;;;0.80;;
58581;SDS011;44361;51.476;5.700;2023-04-24T11:52:41;3.80;;;0.70;;
58581;SDS011;44361;51.476;5.700;2023-04-24T11:55:22;3.50;;;0.73;;
58581;SDS011;44361;51.476;5.700;2023-04-24T11:57:52;4.05;;;0.85;;
58581;SDS011;44361;51.476;5.700;2023-04-24T12:00:31;2.47;;;0.82;;
58581;SDS011;44361;51.476;5.700;2023-04-24T12:03:03;8.85;;;1.75;;
58581;SDS011;44361;51.476;5.700;2023-04-24T12:05:30;6.47;;;1.05;;
58581;SDS011;44361;51.476;5.700;2023-04-24T12:07:56;3.00;;;1.25;;
58581;SDS011;44361;51.476;5.700;2023-04-24T12:10:22;1.63;;;0.50;;
58581;SDS011;44361;51.476;5.700;2023-04-24T12:12:49;8.48;;;0.75;;
58581;SDS011;44361;51.476;5.700;2023-04-24T12:15:16;2.65;;;0.85;;
58581;SDS011;44361;51.476;5.700;2023-04-24T12:17:46;3.03;;;0.90;;
58581;SDS011;44361;51.476;5.700;2023-04-24T12:20:12;4.43;;;0.73;;
58581;SDS011;44361;51.476;5.700;2023-04-24T12:25:31;2.75;;;0.50;;
58581;SDS011;44361;51.476;5.700;2023-04-24T12:30:30;5.47;;;0.55;;
58581;SDS011;44361;51.476;5.700;2023-04-24T12:32:57;0.82;;;0.52;;
58581;SDS011;44361;51.476;5.700;2023-04-24T12:35:25;5.72;;;0.50;;
58581;SDS011;44361;51.476;5.700;2023-04-24T12:37:52;4.90;;;0.82;;
58581;SDS011;44361;51.476;5.700;2023-04-24T12:40:19;2.40;;;0.82;;
58581;SDS011;44361;51.476;5.700;2023-04-24T12:42:49;2.10;;;0.50;;
58581;SDS011;44361;51.476;5.700;2023-04-24T12:45:16;2.42;;;0.70;;
58581;SDS011;44361;51.476;5.700;2023-04-24T12:47:43;2.63;;;0.70;;
58581;SDS011;44361;51.476;5.700;2023-04-24T12:50:10;2.15;;;0.63;;
58581;SDS011;44361;51.476;5.700;2023-04-24T12:52:40;3.20;;;0.80;;
58581;SDS011;44361;51.476;5.700;2023-04-24T12:55:06;2.75;;;0.70;;
58581;SDS011;44361;51.476;5.700;2023-04-24T12:57:33;3.55;;;0.60;;
58581;SDS011;44361;51.476;5.700;2023-04-24T12:59:59;1.45;;;0.60;;
58581;SDS011;44361;51.476;5.700;2023-04-24T13:02:26;1.60;;;0.50;;
58581;SDS011;44361;51.476;5.700;2023-04-24T13:04:54;1.77;;;0.50;;
58581;SDS011;44361;51.476;5.700;2023-04-24T13:07:20;3.58;;;0.65;;
58581;SDS011;44361;51.476;5.700;2023-04-24T13:09:47;1.02;;;0.50;;
58581;SDS011;44361;51.476;5.700;2023-04-24T13:12:13;1.23;;;0.40;;
58581;SDS011;44361;51.476;5.700;2023-04-24T13:14:39;1.50;;;0.50;;
58581;SDS011;44361;51.476;5.700;2023-04-24T13:17:05;1.40;;;0.28;;
58581;SDS011;44361;51.476;5.700;2023-04-24T13:19:36;3.13;;;0.45;;
58581;SDS011;44361;51.476;5.700;2023-04-24T13:22:02;2.05;;;0.45;;
58581;SDS011;44361;51.476;5.700;2023-04-24T13:24:29;4.10;;;1.13;;
58581;SDS011;44361;51.476;5.700;2023-04-24T13:26:54;1.35;;;0.40;;
58581;SDS011;44361;51.476;5.700;2023-04-24T13:29:21;4.32;;;0.50;;
58581;SDS011;44361;51.476;5.700;2023-04-24T13:31:49;1.30;;;0.30;;
58581;SDS011;44361;51.476;5.700;2023-04-24T13:34:15;2.65;;;0.70;;
58581;SDS011;44361;51.476;5.700;2023-04-24T13:36:42;2.95;;;0.80;;
58581;SDS011;44361;51.476;5.700;2023-04-24T13:39:07;2.60;;;0.60;;
58581;SDS011;44361;51.476;5.700;2023-04-24T13:41:33;1.05;;;0.60;;
58581;SDS011;44361;51.476;5.700;2023-04-24T13:43:59;1.23;;;0.50;;
58581;SDS011;44361;51.476;5.700;2023-04-24T13:46:24;2.05;;;0.70;;
58581;SDS011;44361;51.476;5.700;2023-04-24T13:48:50;0.98;;;0.50;;
58581;SDS011;44361;51.476;5.700;2023-04-24T13:51:16;5.80;;;0.60;;
58581;SDS011;44361;51.476;5.700;2023-04-24T13:53:41;3.42;;;0.60;;
58581;SDS011;44361;51.476;5.700;2023-04-24T13:56:07;1.13;;;0.43;;
58581;SDS011;44361;51.476;5.700;2023-04-24T13:58:33;1.13;;;0.50;;
58581;SDS011;44361;51.476;5.700;2023-04-24T14:01:00;2.65;;;0.65;;
58581;SDS011;44361;51.476;5.700;2023-04-24T14:03:26;1.92;;;0.98;;
58581;SDS011;44361;51.476;5.700;2023-04-24T14:05:52;1.70;;;0.77;;
58581;SDS011;44361;51.476;5.700;2023-04-24T14:08:17;2.85;;;0.90;;
58581;SDS011;44361;51.476;5.700;2023-04-24T14:10:43;3.42;;;1.10;;
58581;SDS011;44361;51.476;5.700;2023-04-24T14:13:08;1.75;;;0.88;;
58581;SDS011;44361;51.476;5.700;2023-04-24T14:15:35;5.28;;;1.05;;
58581;SDS011;44361;51.476;5.700;2023-04-24T14:18:01;5.50;;;0.93;;
58581;SDS011;44361;51.476;5.700;2023-04-24T14:20:28;6.80;;;1.20;;
58581;SDS011;44361;51.476;5.700;2023-04-24T14:22:53;3.10;;;0.98;;
58581;SDS011;44361;51.476;5.700;2023-04-24T14:25:19;4.70;;;0.80;;
58581;SDS011;44361;51.476;5.700;2023-04-24T14:27:45;1.48;;;0.85;;
58581;SDS011;44361;51.476;5.700;2023-04-24T14:30:12;2.10;;;0.90;;
58581;SDS011;44361;51.476;5.700;2023-04-24T14:32:38;2.42;;;0.80;;
58581;SDS011;44361;51.476;5.700;2023-04-24T14:35:04;2.67;;;0.88;;
58581;SDS011;44361;51.476;5.700;2023-04-24T14:37:31;1.85;;;1.00;;
58581;SDS011;44361;51.476;5.700;2023-04-24T14:39:56;4.60;;;0.90;;
58581;SDS011;44361;51.476;5.700;2023-04-24T14:42:22;3.33;;;1.00;;
58581;SDS011;44361;51.476;5.700;2023-04-24T14:44:47;2.78;;;1.20;;
58581;SDS011;44361;51.476;5.700;2023-04-24T14:47:13;3.42;;;0.80;;
58581;SDS011;44361;51.476;5.700;2023-04-24T14:49:39;6.68;;;0.88;;